Time;durP1;ratioP1;P1;durP2;ratioP2;P2;SDS_P1;SDS_P2;PMS_P1;PMS_P2;Temp;Humidity;BMP_temperature;BMP_pressure;BME280_temperature;BME280_humidity;BME280_pressure;Samples;Min_cycle;Max_cycle;Signal;HPM_P1;HPM_P2
2022/12/01 00:01:03;;;;;;;;;;;;;;;;;;5032060;28;20265;-86
2022/12/01 00:03:29;;;;;;;;;;;;;;;;;;5031795;28;19971;-86
2022/12/01 00:06:03;;;;;;;;;;;;;;;;;;5031948;28;19917;-87
2022/12/01 00:08:29;;;;;;;;;;;;;;;;;;5031824;28;19917;-86
2022/12/01 00:10:54;;;;;;;;;;;;;;;;;;5063678;28;19971;-87
2022/12/01 00:13:20;;;;;;;;;;;;;;;;;;5031620;28;20008;-86
2022/12/01 00:15:45;;;;;;;;;;;;;;;;;;5063917;28;19929;-86
2022/12/01 00:18:11;;;;;;;;;;;;;;;;;;5047040;28;20376;-86
2022/12/01 00:20:36;;;;;;;;;;;;;;;;;;5032014;28;19921;-87
2022/12/01 00:23:02;;;;;;;;;;;;;;;;;;5031786;28;19928;-87
2022/12/01 00:25:27;;;;;;;;;;;;;;;;;;5031534;28;19932;-86
2022/12/01 00:27:53;;;;;;;;;;;;;;;;;;5046990;28;20237;-88
2022/12/01 00:30:20;;;;;;;;;;;;;;;;;;5031399;28;20296;-86
2022/12/01 00:32:45;;;;;;;;;;;;;;;;;;5046862;28;19917;-86
2022/12/01 00:35:11;;;;;;;;;;;;;;;;;;5031711;28;19917;-86
2022/12/01 00:37:37;;;;;;;;;;;;;;;;;;5047035;28;20011;-86
2022/12/01 00:40:03;;;;;;;;;;;;;;;;;;5031686;28;20387;-86
2022/12/01 00:42:28;;;;;;;;;;;;;;;;;;5063361;28;20379;-86
2022/12/01 00:44:53;;;;;;;;;;;;;;;;;;5063447;28;20012;-87
2022/12/01 00:47:19;;;;;;;;;;;;;;;;;;5031469;28;20365;-86
2022/12/01 00:49:45;;;;;;;;;;;;;;;;;;5031473;28;20332;-86
2022/12/01 00:52:10;;;;;;;;;;;;;;;;;;5046923;28;19925;-87
2022/12/01 00:54:36;;;;;;;;;;;;;;;;;;5049096;28;19913;-86
2022/12/01 00:57:01;;;;;;;;;;;;;;;;;;5035136;28;19921;-87
2022/12/01 00:59:27;;;;;;;;;;;;;;;;;;5034898;28;20396;-88
2022/12/01 01:01:52;;;;;;;;;;;;;;;;;;5034907;28;20011;-88
2022/12/01 01:04:18;;;;;;;;;;;;;;;;;;5034955;28;20000;-86
2022/12/01 01:06:44;;;;;;;;;;;;;;;;;;5034785;28;19956;-85
2022/12/01 01:09:10;;;;;;;;;;;;;;;;;;5034883;28;19959;-85
2022/12/01 01:11:35;;;;;;;;;;;;;;;;;;5034600;28;19917;-86
2022/12/01 01:14:01;;;;;;;;;;;;;;;;;;5034675;28;20291;-86
2022/12/01 01:16:27;;;;;;;;;;;;;;;;;;5066433;28;19921;-86
2022/12/01 01:18:52;;;;;;;;;;;;;;;;;;5034525;28;19924;-85
2022/12/01 01:21:20;;;;;;;;;;;;;;;;;;5066505;28;19917;-85
2022/12/01 01:23:45;;;;;;;;;;;;;;;;;;5066431;28;19956;-86
2022/12/01 01:26:18;;;;;;;;;;;;;;;;;;5049689;28;19961;-85
2022/12/01 01:28:45;;;;;;;;;;;;;;;;;;5053574;28;20292;-85
2022/12/01 01:31:11;;;;;;;;;;;;;;;;;;5035548;28;19924;-86
2022/12/01 01:33:37;;;;;;;;;;;;;;;;;;5034082;28;19932;-85
2022/12/01 01:36:03;;;;;;;;;;;;;;;;;;5034598;28;19918;-86
2022/12/01 01:38:28;;;;;;;;;;;;;;;;;;5034153;28;19920;-87
2022/12/01 01:40:54;;;;;;;;;;;;;;;;;;5034191;28;20342;-87
2022/12/01 01:43:38;;;;;;;;;;;;;;;;;;5049410;28;19972;-84
2022/12/01 01:46:04;;;;;;;;;;;;;;;;;;5032846;28;19963;-85
2022/12/01 01:48:30;;;;;;;;;;;;;;;;;;5049337;28;20265;-85
2022/12/01 01:50:55;;;;;;;;;;;;;;;;;;5032936;28;19924;-86
2022/12/01 01:53:21;;;;;;;;;;;;;;;;;;5033992;28;19917;-85
2022/12/01 01:55:46;;;;;;;;;;;;;;;;;;5066738;28;20008;-86
2022/12/01 01:58:12;;;;;;;;;;;;;;;;;;5049650;28;19917;-86
2022/12/01 02:00:40;;;;;;;;;;;;;;;;;;5034447;28;20423;-85
2022/12/01 02:03:07;;;;;;;;;;;;;;;;;;5034201;28;20011;-85
2022/12/01 02:05:33;;;;;;;;;;;;;;;;;;5034116;28;19917;-86
2022/12/01 02:08:00;;;;;;;;;;;;;;;;;;5034085;28;19924;-87
2022/12/01 02:10:48;;;;;;;;;;;;;;;;;;5033757;28;20376;-86
2022/12/01 02:13:39;;;;;;;;;;;;;;;;;;5030839;28;19936;-87
2022/12/01 02:16:05;;;;;;;;;;;;;;;;;;5064537;28;20440;-86
2022/12/01 02:18:50;;;;;;;;;;;;;;;;;;5105025;28;19917;-87
2022/12/01 02:21:34;;;;;;;;;;;;;;;;;;5038982;28;20008;-86
2022/12/01 02:24:03;;;;;;;;;;;;;;;;;;5035532;28;20381;-88
2022/12/01 02:26:42;;;;;;;;;;;;;;;;;;5033670;28;19987;-85
2022/12/01 02:29:26;;;;;;;;;;;;;;;;;;5033420;28;20003;-85
2022/12/01 02:32:18;;;;;;;;;;;;;;;;;;5033336;28;19962;-85
2022/12/01 02:34:48;;;;;;;;;;;;;;;;;;5031201;28;19921;-85
2022/12/01 02:37:31;;;;;;;;;;;;;;;;;;5033493;28;20288;-88
2022/12/01 02:40:01;;;;;;;;;;;;;;;;;;5033165;28;19917;-87
2022/12/01 02:42:49;;;;;;;;;;;;;;;;;;5033393;28;19921;-86
2022/12/01 02:45:19;;;;;;;;;;;;;;;;;;5033276;28;19913;-87
2022/12/01 02:47:45;;;;;;;;;;;;;;;;;;5032964;28;19917;-86
2022/12/01 02:50:11;;;;;;;;;;;;;;;;;;5048387;28;19924;-86
2022/12/01 02:52:38;;;;;;;;;;;;;;;;;;5048306;28;20337;-86
2022/12/01 02:55:03;;;;;;;;;;;;;;;;;;5048210;28;19964;-86
2022/12/01 02:57:29;;;;;;;;;;;;;;;;;;5032709;28;19925;-87
2022/12/01 02:59:55;;;;;;;;;;;;;;;;;;5065176;28;19917;-86
2022/12/01 03:02:42;;;;;;;;;;;;;;;;;;5048163;28;19921;-86
2022/12/01 03:05:07;;;;;;;;;;;;;;;;;;5031379;28;19917;-88
2022/12/01 03:07:52;;;;;;;;;;;;;;;;;;5031292;28;19928;-86
2022/12/01 03:10:24;;;;;;;;;;;;;;;;;;5032405;28;20450;-87
2022/12/01 03:13:02;;;;;;;;;;;;;;;;;;5047823;28;19917;-87
2022/12/01 03:15:28;;;;;;;;;;;;;;;;;;5032676;28;20261;-87
2022/12/01 03:18:00;;;;;;;;;;;;;;;;;;5032590;28;19921;-87
2022/12/01 03:21:01;;;;;;;;;;;;;;;;;;5032582;28;19917;-86
2022/12/01 03:23:29;;;;;;;;;;;;;;;;;;4990796;28;19918;-86
2022/12/01 03:25:56;;;;;;;;;;;;;;;;;;4990952;28;19957;-87
2022/12/01 03:28:27;;;;;;;;;;;;;;;;;;5007078;28;19914;-87
2022/12/01 03:30:56;;;;;;;;;;;;;;;;;;5007125;28;20328;-87
2022/12/01 03:33:25;;;;;;;;;;;;;;;;;;5006936;28;19930;-85
2022/12/01 03:35:54;;;;;;;;;;;;;;;;;;4990936;28;19918;-85
2022/12/01 03:38:26;;;;;;;;;;;;;;;;;;4991640;28;19918;-86
2022/12/01 03:40:55;;;;;;;;;;;;;;;;;;5007105;28;19925;-87
2022/12/01 03:43:23;;;;;;;;;;;;;;;;;;4991058;28;19933;-87
2022/12/01 03:46:08;;;;;;;;;;;;;;;;;;4990492;28;20102;-86
2022/12/01 03:48:34;;;;;;;;;;;;;;;;;;4993586;28;19932;-86
2022/12/01 03:51:05;;;;;;;;;;;;;;;;;;5018759;28;20365;-86
2022/12/01 03:53:34;;;;;;;;;;;;;;;;;;5011820;28;19925;-87
2022/12/01 03:56:01;;;;;;;;;;;;;;;;;;4993935;28;19921;-86
2022/12/01 03:58:33;;;;;;;;;;;;;;;;;;5049135;28;20379;-87
2022/12/01 04:01:00;;;;;;;;;;;;;;;;;;5050605;28;19921;-87
2022/12/01 04:03:26;;;;;;;;;;;;;;;;;;5031985;28;20379;-86
2022/12/01 04:05:51;;;;;;;;;;;;;;;;;;5032291;28;19917;-86
2022/12/01 04:08:23;;;;;;;;;;;;;;;;;;5030474;28;19950;-88
2022/12/01 04:10:48;;;;;;;;;;;;;;;;;;5036226;28;20098;-87
2022/12/01 04:13:23;;;;;;;;;;;;;;;;;;5030655;28;19971;-87
2022/12/01 04:15:49;;;;;;;;;;;;;;;;;;5047650;28;20303;-87
2022/12/01 04:18:14;;;;;;;;;;;;;;;;;;5043744;28;19917;-87
2022/12/01 04:20:42;;;;;;;;;;;;;;;;;;5051770;28;19917;-88
2022/12/01 04:23:07;;;;;;;;;;;;;;;;;;5051617;28;20396;-86
2022/12/01 04:25:32;;;;;;;;;;;;;;;;;;5055193;28;19924;-86
2022/12/01 04:27:58;;;;;;;;;;;;;;;;;;5056524;28;19927;-85
2022/12/01 04:30:23;;;;;;;;;;;;;;;;;;5059513;28;19916;-84
2022/12/01 04:32:48;;;;;;;;;;;;;;;;;;5056105;28;20178;-85
2022/12/01 04:35:14;;;;;;;;;;;;;;;;;;5053956;28;19920;-85
2022/12/01 04:37:39;;;;;;;;;;;;;;;;;;5055311;28;20308;-85
2022/12/01 04:40:05;;;;;;;;;;;;;;;;;;5055436;28;19923;-84
2022/12/01 04:42:31;;;;;;;;;;;;;;;;;;5053941;28;20423;-85
2022/12/01 04:44:56;;;;;;;;;;;;;;;;;;5055300;28;20386;-84
2022/12/01 04:47:22;;;;;;;;;;;;;;;;;;5054862;28;19921;-84
2022/12/01 04:49:47;;;;;;;;;;;;;;;;;;5054219;28;19928;-84
2022/12/01 04:52:12;;;;;;;;;;;;;;;;;;5053800;28;19924;-84
2022/12/01 04:54:38;;;;;;;;;;;;;;;;;;5054962;28;19917;-85
2022/12/01 04:57:03;;;;;;;;;;;;;;;;;;5052877;28;19921;-84
2022/12/01 04:59:29;;;;;;;;;;;;;;;;;;5055966;28;20016;-86
2022/12/01 05:01:54;;;;;;;;;;;;;;;;;;5050072;28;20454;-85
2022/12/01 05:04:20;;;;;;;;;;;;;;;;;;5084770;28;19927;-85
2022/12/01 05:06:45;;;;;;;;;;;;;;;;;;5054084;28;20283;-85
2022/12/01 05:09:14;;;;;;;;;;;;;;;;;;5052223;28;19975;-86
2022/12/01 05:11:39;;;;;;;;;;;;;;;;;;5053828;28;19960;-85
2022/12/01 05:14:05;;;;;;;;;;;;;;;;;;5050500;28;19952;-84
2022/12/01 05:16:31;;;;;;;;;;;;;;;;;;5048000;28;20369;-85
2022/12/01 05:21:43;;;;;;;;;;;;;;;;;;5055348;28;19967;-87
2022/12/01 05:24:09;;;;;;;;;;;;;;;;;;5049658;28;20395;-87
2022/12/01 05:26:35;;;;;;;;;;;;;;;;;;5046859;28;20410;-88
2022/12/01 05:29:00;;;;;;;;;;;;;;;;;;5052943;28;19925;-87
2022/12/01 05:31:25;;;;;;;;;;;;;;;;;;5052168;28;20388;-88
2022/12/01 05:33:51;;;;;;;;;;;;;;;;;;5051250;28;19921;-88
2022/12/01 05:36:16;;;;;;;;;;;;;;;;;;5068225;28;19967;-87
2022/12/01 05:38:45;;;;;;;;;;;;;;;;;;5053648;28;19971;-87
2022/12/01 05:41:10;;;;;;;;;;;;;;;;;;5053757;28;19924;-87
2022/12/01 05:43:36;;;;;;;;;;;;;;;;;;5052446;28;19921;-88
2022/12/01 05:46:01;;;;;;;;;;;;;;;;;;5055327;28;20011;-87
2022/12/01 05:48:26;;;;;;;;;;;;;;;;;;5057396;28;19923;-87
2022/12/01 05:50:52;;;;;;;;;;;;;;;;;;5056133;28;19978;-89
2022/12/01 05:53:18;;;;;;;;;;;;;;;;;;5056446;28;19921;-87
2022/12/01 05:55:43;;;;;;;;;;;;;;;;;;5056688;28;19926;-88
2022/12/01 05:58:09;;;;;;;;;;;;;;;;;;5055159;28;19928;-88
2022/12/01 06:00:35;;;;;;;;;;;;;;;;;;5073488;28;20003;-86
2022/12/01 06:03:01;;;;;;;;;;;;;;;;;;5088315;28;19920;-88
2022/12/01 06:05:26;;;;;;;;;;;;;;;;;;5055685;28;19917;-87
2022/12/01 06:07:52;;;;;;;;;;;;;;;;;;5055530;28;19913;-87
2022/12/01 06:10:17;;;;;;;;;;;;;;;;;;5053745;28;19920;-88
2022/12/01 06:12:43;;;;;;;;;;;;;;;;;;5054972;28;19925;-87
2022/12/01 06:15:09;;;;;;;;;;;;;;;;;;5053542;28;19920;-87
2022/12/01 06:17:34;;;;;;;;;;;;;;;;;;5054917;28;19916;-87
2022/12/01 06:20:00;;;;;;;;;;;;;;;;;;5055630;28;19966;-87
2022/12/01 06:22:25;;;;;;;;;;;;;;;;;;5055123;28;19917;-87
2022/12/01 06:24:51;;;;;;;;;;;;;;;;;;5052442;28;19927;-87
2022/12/01 06:27:16;;;;;;;;;;;;;;;;;;5053858;28;20015;-87
2022/12/01 06:29:42;;;;;;;;;;;;;;;;;;5054655;28;19921;-87
2022/12/01 06:32:07;;;;;;;;;;;;;;;;;;5074023;28;19915;-87
2022/12/01 06:34:33;;;;;;;;;;;;;;;;;;5108193;28;19908;-87
2022/12/01 06:36:58;;;;;;;;;;;;;;;;;;5059579;28;19916;-87
2022/12/01 06:39:23;;;;;;;;;;;;;;;;;;5054653;28;19923;-86
2022/12/01 06:41:49;;;;;;;;;;;;;;;;;;5054692;28;19924;-86
2022/12/01 06:44:14;;;;;;;;;;;;;;;;;;5055818;28;19921;-87
2022/12/01 06:46:40;;;;;;;;;;;;;;;;;;5053309;28;20413;-87
2022/12/01 06:49:05;;;;;;;;;;;;;;;;;;5053116;28;20376;-88
2022/12/01 06:51:33;;;;;;;;;;;;;;;;;;5052252;28;19978;-88
2022/12/01 06:53:58;;;;;;;;;;;;;;;;;;5053689;28;20306;-87
2022/12/01 06:56:24;;;;;;;;;;;;;;;;;;5053949;28;20012;-86
2022/12/01 06:58:50;;;;;;;;;;;;;;;;;;5053442;28;19927;-88
2022/12/01 07:01:15;;;;;;;;;;;;;;;;;;5057070;28;19964;-88
2022/12/01 07:03:41;;;;;;;;;;;;;;;;;;5056495;28;19966;-87
2022/12/01 07:06:07;;;;;;;;;;;;;;;;;;5055413;28;19916;-89
2022/12/01 07:08:33;;;;;;;;;;;;;;;;;;5056115;28;20291;-89
2022/12/01 07:11:03;;;;;;;;;;;;;;;;;;5053925;28;19928;-88
2022/12/01 07:13:28;;;;;;;;;;;;;;;;;;5054953;28;19925;-88
2022/12/01 07:15:54;;;;;;;;;;;;;;;;;;5056226;28;19927;-87
2022/12/01 07:18:19;;;;;;;;;;;;;;;;;;5054628;28;20303;-88
2022/12/01 07:20:45;;;;;;;;;;;;;;;;;;5052858;28;19918;-88
2022/12/01 07:23:10;;;;;;;;;;;;;;;;;;5052281;28;20300;-89
2022/12/01 07:25:36;;;;;;;;;;;;;;;;;;5052148;28;19917;-88
2022/12/01 07:28:01;;;;;;;;;;;;;;;;;;5052189;28;20333;-87
2022/12/01 07:30:26;;;;;;;;;;;;;;;;;;5050852;28;19923;-88
2022/12/01 07:32:52;;;;;;;;;;;;;;;;;;5051422;28;19920;-87
2022/12/01 07:35:17;;;;;;;;;;;;;;;;;;5052153;28;20034;-86
2022/12/01 07:37:43;;;;;;;;;;;;;;;;;;5050529;28;19927;-88
2022/12/01 07:40:09;;;;;;;;;;;;;;;;;;5050817;28;19917;-89
2022/12/01 07:42:34;;;;;;;;;;;;;;;;;;5050621;28;20372;-88
2022/12/01 07:45:00;;;;;;;;;;;;;;;;;;5053282;28;19916;-87
2022/12/01 07:47:25;;;;;;;;;;;;;;;;;;5050675;28;19928;-88
2022/12/01 07:49:50;;;;;;;;;;;;;;;;;;5050723;28;19917;-88
2022/12/01 07:52:16;;;;;;;;;;;;;;;;;;5052884;28;20288;-87
2022/12/01 07:54:41;;;;;;;;;;;;;;;;;;5055062;28;19976;-87
2022/12/01 07:57:07;;;;;;;;;;;;;;;;;;5054191;28;19956;-88
2022/12/01 07:59:32;;;;;;;;;;;;;;;;;;5055362;28;20364;-88
2022/12/01 08:01:58;;;;;;;;;;;;;;;;;;5052652;28;20351;-87
2022/12/01 08:04:23;;;;;;;;;;;;;;;;;;5057542;28;19917;-87
2022/12/01 08:06:48;;;;;;;;;;;;;;;;;;5055512;28;20310;-88
2022/12/01 08:09:14;;;;;;;;;;;;;;;;;;5057013;28;19917;-88
2022/12/01 08:11:39;;;;;;;;;;;;;;;;;;5057356;28;19924;-89
2022/12/01 08:14:05;;;;;;;;;;;;;;;;;;5056818;28;20086;-86
2022/12/01 08:16:30;;;;;;;;;;;;;;;;;;5057897;28;19939;-87
2022/12/01 08:18:55;;;;;;;;;;;;;;;;;;5058215;28;20268;-87
2022/12/01 08:21:22;;;;;;;;;;;;;;;;;;5057659;28;20354;-84
2022/12/01 08:23:50;;;;;;;;;;;;;;;;;;5073282;28;19920;-86
2022/12/01 08:26:17;;;;;;;;;;;;;;;;;;5057507;28;20391;-87
2022/12/01 08:28:43;;;;;;;;;;;;;;;;;;5057979;28;19920;-86
2022/12/01 08:31:09;;;;;;;;;;;;;;;;;;5058946;28;20288;-86
2022/12/01 08:33:35;;;;;;;;;;;;;;;;;;5057923;28;19929;-86
2022/12/01 08:36:01;;;;;;;;;;;;;;;;;;5058149;28;19924;-89
2022/12/01 08:38:26;;;;;;;;;;;;;;;;;;5056578;28;19964;-85
2022/12/01 08:40:55;;;;;;;;;;;;;;;;;;5056263;28;20394;-88
2022/12/01 08:43:20;;;;;;;;;;;;;;;;;;5057566;28;19928;-86
2022/12/01 08:45:46;;;;;;;;;;;;;;;;;;5063233;28;19974;-87
2022/12/01 08:48:11;;;;;;;;;;;;;;;;;;5066491;28;19921;-88
2022/12/01 08:50:37;;;;;;;;;;;;;;;;;;5055994;28;19917;-86
2022/12/01 08:53:02;;;;;;;;;;;;;;;;;;5057756;28;19928;-86
2022/12/01 08:55:28;;;;;;;;;;;;;;;;;;5057583;28;19921;-87
2022/12/01 08:57:53;;;;;;;;;;;;;;;;;;5055916;28;19925;-88
2022/12/01 09:00:18;;;;;;;;;;;;;;;;;;5056514;28;20316;-87
2022/12/01 09:02:44;;;;;;;;;;;;;;;;;;5055933;28;20342;-87
2022/12/01 09:05:10;;;;;;;;;;;;;;;;;;5056924;28;20442;-87
2022/12/01 09:07:35;;;;;;;;;;;;;;;;;;5057395;28;20015;-86
2022/12/01 09:10:01;;;;;;;;;;;;;;;;;;5056897;28;19917;-87
2022/12/01 09:12:27;;;;;;;;;;;;;;;;;;5054102;28;20320;-86
2022/12/01 09:14:53;;;;;;;;;;;;;;;;;;5052419;28;20007;-86
2022/12/01 09:17:22;;;;;;;;;;;;;;;;;;5054502;28;20020;-88
2022/12/01 09:19:47;;;;;;;;;;;;;;;;;;5054665;28;20236;-86
2022/12/01 09:22:13;;;;;;;;;;;;;;;;;;5056910;28;19952;-89
2022/12/01 09:24:38;;;;;;;;;;;;;;;;;;5053571;28;19970;-86
2022/12/01 09:27:04;;;;;;;;;;;;;;;;;;5052694;28;19913;-86
2022/12/01 09:29:30;;;;;;;;;;;;;;;;;;5054950;28;19924;-86
2022/12/01 09:31:56;;;;;;;;;;;;;;;;;;5056380;28;19960;-87
2022/12/01 09:34:22;;;;;;;;;;;;;;;;;;5056505;28;19960;-88
2022/12/01 09:36:48;;;;;;;;;;;;;;;;;;5053999;28;19960;-86
2022/12/01 09:39:14;;;;;;;;;;;;;;;;;;5053051;28;19924;-87
2022/12/01 09:41:55;;;;;;;;;;;;;;;;;;5053095;28;19917;-85
2022/12/01 09:44:39;;;;;;;;;;;;;;;;;;5054659;28;19982;-87
2022/12/01 09:47:07;;;;;;;;;;;;;;;;;;5055676;28;19913;-87
2022/12/01 09:49:52;;;;;;;;;;;;;;;;;;5055127;28;19917;-88
2022/12/01 09:52:18;;;;;;;;;;;;;;;;;;5053575;28;19936;-87
2022/12/01 09:54:45;;;;;;;;;;;;;;;;;;5055564;28;19951;-87
2022/12/01 09:57:14;;;;;;;;;;;;;;;;;;5057382;28;19920;-89
2022/12/01 09:59:42;;;;;;;;;;;;;;;;;;5053642;28;20333;-88
2022/12/01 10:02:40;;;;;;;;;;;;;;;;;;5053519;28;19960;-89
2022/12/01 10:05:11;;;;;;;;;;;;;;;;;;5034039;28;20427;-88
2022/12/01 10:07:41;;;;;;;;;;;;;;;;;;5052269;28;20317;-89
2022/12/01 10:10:19;;;;;;;;;;;;;;;;;;5053506;28;19983;-90
2022/12/01 10:12:45;;;;;;;;;;;;;;;;;;5053416;28;19917;-89
2022/12/01 10:15:31;;;;;;;;;;;;;;;;;;5051771;28;19960;-87
2022/12/01 10:18:12;;;;;;;;;;;;;;;;;;5054979;28;19921;-87
2022/12/01 10:20:47;;;;;;;;;;;;;;;;;;5052166;28;20383;-86
2022/12/01 10:23:18;;;;;;;;;;;;;;;;;;5053668;28;19944;-87
2022/12/01 10:25:58;;;;;;;;;;;;;;;;;;5053017;28;19952;-86
2022/12/01 10:28:50;;;;;;;;;;;;;;;;;;5052059;28;19913;-86
2022/12/01 10:31:22;;;;;;;;;;;;;;;;;;5054123;28;19966;-88
2022/12/01 10:34:08;;;;;;;;;;;;;;;;;;5055218;28;19924;-87
2022/12/01 10:36:33;;;;;;;;;;;;;;;;;;5050675;28;19921;-85
2022/12/01 10:39:00;;;;;;;;;;;;;;;;;;5054362;28;19920;-88
2022/12/01 10:41:27;;;;;;;;;;;;;;;;;;5056094;28;19923;-87
2022/12/01 10:43:58;;;;;;;;;;;;;;;;;;5056349;28;19940;-89
2022/12/01 10:46:23;;;;;;;;;;;;;;;;;;5054682;28;20004;-89
2022/12/01 10:48:57;;;;;;;;;;;;;;;;;;5076207;28;19960;-87
2022/12/01 10:51:25;;;;;;;;;;;;;;;;;;5044454;28;19947;-87
2022/12/01 10:53:57;;;;;;;;;;;;;;;;;;5071463;28;19921;-86
2022/12/01 10:56:22;;;;;;;;;;;;;;;;;;5087561;28;19917;-84
2022/12/01 10:58:50;;;;;;;;;;;;;;;;;;5065072;28;19928;-89
2022/12/01 11:01:17;;;;;;;;;;;;;;;;;;5063505;28;20008;-87
2022/12/01 11:03:43;;;;;;;;;;;;;;;;;;5053042;28;19978;-87
2022/12/01 11:06:09;;;;;;;;;;;;;;;;;;5051330;28;19924;-88
2022/12/01 11:08:38;;;;;;;;;;;;;;;;;;5052636;28;19921;-88
2022/12/01 11:11:04;;;;;;;;;;;;;;;;;;5053103;28;20300;-87
2022/12/01 11:13:32;;;;;;;;;;;;;;;;;;5052613;28;19916;-87
2022/12/01 11:15:59;;;;;;;;;;;;;;;;;;5052945;28;20012;-87
2022/12/01 11:18:35;;;;;;;;;;;;;;;;;;5054967;28;20015;-88
2022/12/01 11:21:14;;;;;;;;;;;;;;;;;;5067856;28;19939;-87
2022/12/01 11:23:49;;;;;;;;;;;;;;;;;;5056129;28;20097;-87
2022/12/01 11:26:19;;;;;;;;;;;;;;;;;;5058369;28;19917;-87
2022/12/01 11:28:51;;;;;;;;;;;;;;;;;;5057048;28;20007;-89
2022/12/01 11:31:17;;;;;;;;;;;;;;;;;;5052290;28;20380;-87
2022/12/01 11:33:48;;;;;;;;;;;;;;;;;;5049935;28;19925;-88
2022/12/01 11:36:19;;;;;;;;;;;;;;;;;;5047074;28;19925;-85
2022/12/01 11:38:45;;;;;;;;;;;;;;;;;;5049977;28;19917;-85
2022/12/01 11:41:23;;;;;;;;;;;;;;;;;;5051131;28;20323;-86
2022/12/01 11:43:48;;;;;;;;;;;;;;;;;;5044179;28;20438;-86
2022/12/01 11:46:14;;;;;;;;;;;;;;;;;;5041647;28;19929;-85
2022/12/01 11:48:39;;;;;;;;;;;;;;;;;;5042930;28;19917;-85
2022/12/01 11:51:25;;;;;;;;;;;;;;;;;;5031517;28;19952;-88
2022/12/01 11:54:03;;;;;;;;;;;;;;;;;;5063544;28;20055;-89
2022/12/01 11:56:30;;;;;;;;;;;;;;;;;;5034684;28;19936;-87
2022/12/01 11:59:00;;;;;;;;;;;;;;;;;;5042989;28;20002;-88
2022/12/01 12:01:44;;;;;;;;;;;;;;;;;;5045029;28;19921;-87
2022/12/01 12:04:34;;;;;;;;;;;;;;;;;;5050534;28;19916;-86
2022/12/01 12:07:06;;;;;;;;;;;;;;;;;;5049537;28;19929;-87
2022/12/01 12:09:51;;;;;;;;;;;;;;;;;;5040999;28;19925;-86
2022/12/01 12:12:22;;;;;;;;;;;;;;;;;;5057949;28;19924;-85
2022/12/01 12:15:00;;;;;;;;;;;;;;;;;;5051680;28;20273;-87
2022/12/01 12:17:44;;;;;;;;;;;;;;;;;;5050326;28;19956;-86
2022/12/01 12:20:09;;;;;;;;;;;;;;;;;;5051575;28;20398;-87
2022/12/01 12:22:47;;;;;;;;;;;;;;;;;;5050154;28;19921;-84
2022/12/01 12:25:22;;;;;;;;;;;;;;;;;;5050167;28;19917;-87
2022/12/01 12:27:53;;;;;;;;;;;;;;;;;;5050136;28;19971;-88
2022/12/01 12:30:25;;;;;;;;;;;;;;;;;;5041612;28;19921;-88
2022/12/01 12:32:50;;;;;;;;;;;;;;;;;;5051232;28;19917;-89
2022/12/01 12:35:28;;;;;;;;;;;;;;;;;;5049586;28;19925;-86
2022/12/01 12:38:02;;;;;;;;;;;;;;;;;;5051430;28;20455;-86
2022/12/01 12:40:27;;;;;;;;;;;;;;;;;;5050030;28;19927;-86
2022/12/01 12:43:17;;;;;;;;;;;;;;;;;;5051248;28;19995;-87
2022/12/01 12:46:01;;;;;;;;;;;;;;;;;;5051102;28;19995;-87
2022/12/01 12:48:36;;;;;;;;;;;;;;;;;;5050144;28;19925;-88
2022/12/01 12:51:10;;;;;;;;;;;;;;;;;;5052942;28;19921;-87
2022/12/01 12:53:42;;;;;;;;;;;;;;;;;;5052732;28;19917;-86
2022/12/01 12:56:09;;;;;;;;;;;;;;;;;;5054155;28;20301;-89
2022/12/01 12:58:38;;;;;;;;;;;;;;;;;;5054785;28;19925;-90
2022/12/01 13:01:25;;;;;;;;;;;;;;;;;;5054443;28;19964;-89
2022/12/01 13:03:55;;;;;;;;;;;;;;;;;;5054588;28;20306;-88
2022/12/01 13:06:24;;;;;;;;;;;;;;;;;;5052268;28;20459;-85
2022/12/01 13:08:57;;;;;;;;;;;;;;;;;;5056640;28;19921;-85
2022/12/01 13:11:28;;;;;;;;;;;;;;;;;;5077245;28;19921;-87
2022/12/01 13:13:56;;;;;;;;;;;;;;;;;;5050919;28;19955;-88
2022/12/01 13:16:27;;;;;;;;;;;;;;;;;;5068586;28;19917;-91
2022/12/01 13:18:55;;;;;;;;;;;;;;;;;;5052823;28;19943;-90
2022/12/01 13:21:21;;;;;;;;;;;;;;;;;;5068720;28;19924;-86
2022/12/01 13:23:47;;;;;;;;;;;;;;;;;;5052705;28;19927;-86
2022/12/01 13:26:14;;;;;;;;;;;;;;;;;;5053960;28;19986;-87
2022/12/01 13:28:40;;;;;;;;;;;;;;;;;;5052727;28;20348;-88
2022/12/01 13:31:07;;;;;;;;;;;;;;;;;;5053811;28;20011;-88
2022/12/01 13:33:34;;;;;;;;;;;;;;;;;;5053160;28;19928;-90
2022/12/01 13:36:00;;;;;;;;;;;;;;;;;;5054079;28;19917;-89
2022/12/01 13:38:32;;;;;;;;;;;;;;;;;;5069522;28;19920;-88
2022/12/01 13:41:10;;;;;;;;;;;;;;;;;;5051622;28;19932;-88
2022/12/01 13:43:36;;;;;;;;;;;;;;;;;;5053441;28;19921;-88
2022/12/01 13:46:02;;;;;;;;;;;;;;;;;;5053469;28;19920;-89
2022/12/01 13:48:36;;;;;;;;;;;;;;;;;;5054091;28;19966;-89
2022/12/01 13:51:02;;;;;;;;;;;;;;;;;;5054040;28;19917;-88
2022/12/01 13:53:35;;;;;;;;;;;;;;;;;;5054321;28;20016;-87
2022/12/01 13:56:07;;;;;;;;;;;;;;;;;;5052652;28;20375;-90
2022/12/01 13:58:36;;;;;;;;;;;;;;;;;;5054076;28;19925;-89
2022/12/01 14:01:19;;;;;;;;;;;;;;;;;;5052153;28;19920;-88
2022/12/01 14:04:03;;;;;;;;;;;;;;;;;;5053848;28;19917;-88
2022/12/01 14:06:34;;;;;;;;;;;;;;;;;;5053951;28;19966;-88
2022/12/01 14:09:13;;;;;;;;;;;;;;;;;;5054347;28;20287;-89
2022/12/01 14:11:39;;;;;;;;;;;;;;;;;;5054890;28;19960;-87
2022/12/01 14:14:07;;;;;;;;;;;;;;;;;;5053990;28;20343;-89
2022/12/01 14:16:51;;;;;;;;;;;;;;;;;;5052589;28;19921;-89
2022/12/01 14:19:29;;;;;;;;;;;;;;;;;;5053853;28;19917;-87
2022/12/01 14:21:54;;;;;;;;;;;;;;;;;;5053357;28;20018;-88
2022/12/01 14:24:22;;;;;;;;;;;;;;;;;;5053911;28;20399;-87
2022/12/01 14:26:48;;;;;;;;;;;;;;;;;;5054583;28;19924;-88
2022/12/01 14:29:24;;;;;;;;;;;;;;;;;;5052717;28;20352;-87
2022/12/01 14:31:49;;;;;;;;;;;;;;;;;;5053113;28;19916;-88
2022/12/01 14:34:17;;;;;;;;;;;;;;;;;;5053323;28;19928;-88
2022/12/01 14:36:42;;;;;;;;;;;;;;;;;;5053002;28;19917;-87
2022/12/01 14:39:25;;;;;;;;;;;;;;;;;;5053170;28;19921;-86
2022/12/01 14:41:52;;;;;;;;;;;;;;;;;;5053312;28;19924;-85
2022/12/01 14:44:36;;;;;;;;;;;;;;;;;;5057346;28;20011;-87
2022/12/01 14:47:01;;;;;;;;;;;;;;;;;;5053359;28;19917;-87
2022/12/01 14:49:30;;;;;;;;;;;;;;;;;;5051932;28;19921;-89
2022/12/01 14:51:57;;;;;;;;;;;;;;;;;;5052114;28;19925;-86
2022/12/01 14:54:25;;;;;;;;;;;;;;;;;;5051609;28;19991;-88
2022/12/01 14:56:52;;;;;;;;;;;;;;;;;;5044667;28;20002;-88
2022/12/01 14:59:20;;;;;;;;;;;;;;;;;;5051638;28;19917;-87
2022/12/01 15:01:47;;;;;;;;;;;;;;;;;;5051179;28;20345;-87
2022/12/01 15:04:13;;;;;;;;;;;;;;;;;;5049201;28;20268;-85
2022/12/01 15:06:38;;;;;;;;;;;;;;;;;;5049346;28;19924;-87
2022/12/01 15:09:05;;;;;;;;;;;;;;;;;;5050360;28;19933;-87
2022/12/01 15:11:31;;;;;;;;;;;;;;;;;;5049589;28;20007;-88
2022/12/01 15:13:56;;;;;;;;;;;;;;;;;;5049657;28;20041;-86
2022/12/01 15:16:27;;;;;;;;;;;;;;;;;;5052108;28;19929;-87
2022/12/01 15:18:53;;;;;;;;;;;;;;;;;;5050774;28;19924;-86
2022/12/01 15:21:20;;;;;;;;;;;;;;;;;;5052777;28;19920;-86
2022/12/01 15:24:00;;;;;;;;;;;;;;;;;;5050378;28;20015;-87
2022/12/01 15:26:27;;;;;;;;;;;;;;;;;;5050395;28;19916;-86
2022/12/01 15:29:22;;;;;;;;;;;;;;;;;;5052405;28;19939;-86
2022/12/01 15:31:52;;;;;;;;;;;;;;;;;;5047482;28;20184;-86
2022/12/01 15:34:28;;;;;;;;;;;;;;;;;;5049324;28;20244;-87
2022/12/01 15:36:54;;;;;;;;;;;;;;;;;;5072519;28;19924;-87
2022/12/01 15:39:22;;;;;;;;;;;;;;;;;;5045195;28;20297;-86
2022/12/01 15:41:52;;;;;;;;;;;;;;;;;;5043247;28;19920;-86
2022/12/01 15:44:25;;;;;;;;;;;;;;;;;;5059943;28;19917;-85
2022/12/01 15:46:51;;;;;;;;;;;;;;;;;;5063331;28;19943;-86
2022/12/01 15:55:59;;;;;;;;;;;;;;;;;;5029579;28;19928;-87
2022/12/01 15:58:29;;;;;;;;;;;;;;;;;;5048937;28;20355;-86
2022/12/01 16:00:57;;;;;;;;;;;;;;;;;;5032307;28;20237;-86
2022/12/01 16:03:23;;;;;;;;;;;;;;;;;;5029877;28;19921;-87
2022/12/01 16:05:48;;;;;;;;;;;;;;;;;;5028048;28;19975;-86
2022/12/01 16:08:15;;;;;;;;;;;;;;;;;;5028819;28;19963;-86
2022/12/01 16:10:40;;;;;;;;;;;;;;;;;;5028688;28;19921;-87
2022/12/01 16:13:24;;;;;;;;;;;;;;;;;;5027240;28;19975;-85
2022/12/01 16:15:50;;;;;;;;;;;;;;;;;;5033876;28;19968;-87
2022/12/01 16:18:36;;;;;;;;;;;;;;;;;;5046456;28;19968;-86
2022/12/01 16:21:04;;;;;;;;;;;;;;;;;;5047509;28;19921;-86
2022/12/01 16:23:30;;;;;;;;;;;;;;;;;;5049121;28;19928;-86
2022/12/01 16:25:56;;;;;;;;;;;;;;;;;;5046321;28;20296;-85
2022/12/01 16:28:30;;;;;;;;;;;;;;;;;;5061218;28;19986;-85
2022/12/01 16:30:56;;;;;;;;;;;;;;;;;;5054307;28;20019;-86
2022/12/01 16:33:23;;;;;;;;;;;;;;;;;;5051697;28;20676;-86
2022/12/01 16:35:49;;;;;;;;;;;;;;;;;;5083915;28;19932;-86
2022/12/01 16:38:19;;;;;;;;;;;;;;;;;;5084271;28;19927;-85
2022/12/01 16:40:45;;;;;;;;;;;;;;;;;;5051957;28;19928;-85
2022/12/01 16:43:11;;;;;;;;;;;;;;;;;;5084506;28;19921;-85
2022/12/01 16:45:37;;;;;;;;;;;;;;;;;;5050747;28;19924;-86
2022/12/01 16:48:02;;;;;;;;;;;;;;;;;;5052242;28;20528;-86
2022/12/01 16:50:27;;;;;;;;;;;;;;;;;;5051737;28;20427;-86
2022/12/01 16:52:53;;;;;;;;;;;;;;;;;;5052054;28;19974;-86
2022/12/01 16:55:24;;;;;;;;;;;;;;;;;;5051996;28;19921;-86
2022/12/01 16:57:50;;;;;;;;;;;;;;;;;;5051736;28;19921;-86
2022/12/01 17:00:16;;;;;;;;;;;;;;;;;;5052183;28;19921;-87
2022/12/01 17:02:41;;;;;;;;;;;;;;;;;;5051582;28;19920;-85
2022/12/01 17:05:08;;;;;;;;;;;;;;;;;;5051722;28;20340;-86
2022/12/01 17:07:33;;;;;;;;;;;;;;;;;;5051834;28;19920;-85